UMMS/MSQ METAR and TAF weather

Enter ICAO airport designator
Station Type Date Time Source
UMMS METAR 2019/08/25 07:00 UTC NOAA

UMMS 250700Z VRB01MPS CAVOK 21/15 Q1028 R88/CLRD// NOSIG


Station Type Date Time Source
UMMS Decoded METAR 2019/08/25 07:00 UTC NOAA

Station name not available
Aug 25, 2019 - 03:00 AM EDT / 2019.08.25 0700 UTC
Wind: Variable at 2 MPH (2 KT):0
Visibility: greater than 7 mile(s):0
Temperature: 69 F (21 C)
Dew Point: 59 F (15 C)
Relative Humidity: 68%
Pressure (altimeter): 30.36 in. Hg (1028 hPa)
ob: UMMS 250700Z VRB01MPS CAVOK 21/15 Q1028 R88/CLRD// NOSIG
cycle: 7

Station Type Date Time Source
UMMS TAF 2019/08/25 06:21 UTC NOAA

TAF TAF UMMS 250502Z 2506/2606 04005MPS 9999 SCT030 TX25/2513Z TN13/2603Z
TEMPO 2519/2606 VRB02MPS 2000 BR SCT004

Example: see airport list